Terminal Aerodrome Forecast
Issued by NWS

Home | Current Version | Previous Version | Text Only | Print | Product List | Glossary On
Versions: 1 2 3 4 5 6 7 8 9 10 11 12 13
000
FTUS42 KGSP 252337
TAFHKY
TAF
KHKY 252337Z 2600/2624 18006KT P6SM SCT060
     FM260200 17004KT P6SM BKN045
     FM260900 17005KT 6SM BR BKN025
     FM261000 17005KT 5SM BR BKN008 PROB30 2610/2613 3SM -SHRA BR
      OVC003
     FM261500 16007KT 4SM -SHRA OVC008
     FM262100 18009G16KT P6SM VCSH OVC015=

USA.gov is the U.S. government's official web portal to all federal, state and local government web resources and services.